General Rodolfo Sanchez Taboada International Airport
MMML : rendu visible

Aérodrome :











RETROUVEZ-NOUS SUR...

 
LOGIN :

S'inscrire | Disclaimer

   EN    FR    IT 

 









Légende :    VFR   VFR Marginal   IFR   IFR Intensif   IFR Très Intensif
Visi : 
Plafond : 
>= 8 km
>= 3000ft
5 à 8 km
1000 à 3000 ft
1500m à 5 km
500 à 1000 ft
800 à 1500m
200 à 500 ft
< 800m
< 200 ft
Symboles :   Orages  Brouillard  Fortes neiges  Fortes précipitations  Vent > 20 kt






- Altitude de l'aérodrome : 74 ft
- Code IATA : MXL


MMML - General Rodolfo Sanchez Taboada International

DERNIER METAR :
  • 230151Z 34005KT 10SM SKC 17/11 A3012

METARs EXPIRÉS :
  • 230042Z 32004KT 10SM SKC 18/10 A3010 RMK AS W
  • 222340Z 01004KT 10SM SKC 20/06 A3010 RMK SLP193 57017 942 ISOL CU

TAF TAF MMML
Valide du 22 à 18h jusqu'au 23 à 18h UTC


221649Z 2218/2318 30010KT P6SM SCT100 BKN200
FM230300 00000KT P6SM BKN200



MET'MAP, la Météo Aéronautique d'un coup d'oeil ! - Copyright ORBIFLY Décembre 2007 - Disclaimer

ORBIFLY MET'MAP TEAM :

Programmation & Développement : Alexandra Zaïnal
Conception & Développement : Baudouin d'Aumeries
Co-Programmation & Développement : Marc-Olivier Méhu
Soutien technique & logistique : Manuel Goepfert

Contact : metmap@orbifly.com




SOURCES & CREDITS :

   NOAA       Earth
Advisory